Time;durP1;ratioP1;P1;durP2;ratioP2;P2;SDS_P1;SDS_P2;PMS_P1;PMS_P2;Temp;Humidity;BMP_temperature;BMP_pressure;BME280_temperature;BME280_humidity;BME280_pressure;Samples;Min_cycle;Max_cycle;Signal;HPM_P1;HPM_P2
2022/03/21 00:02:15;;;;;;;0.00;0.00;;;8.40;99.90;;;;;;5055882;28;20109;-58
2022/03/21 00:04:41;;;;;;;0.00;0.00;;;7.10;99.90;;;;;;5044585;28;20133;-58
2022/03/21 00:07:06;;;;;;;0.00;0.00;;;7.10;99.90;;;;;;5042945;28;20200;-59
2022/03/21 00:09:32;;;;;;;0.00;0.00;;;7.10;99.90;;;;;;5042438;28;20699;-58
2022/03/21 00:11:58;;;;;;;0.00;0.00;;;7.20;99.90;;;;;;5042116;28;20049;-58
2022/03/21 00:14:23;;;;;;;0.00;0.00;;;7.10;99.90;;;;;;5042838;28;20500;-58
2022/03/21 00:16:49;;;;;;;0.00;0.00;;;7.00;99.90;;;;;;5041483;28;20033;-59
2022/03/21 00:19:15;;;;;;;0.00;0.00;;;7.10;99.90;;;;;;5041267;28;20770;-59
2022/03/21 00:21:40;;;;;;;0.00;0.00;;;7.00;99.90;;;;;;5042167;28;20071;-59
2022/03/21 00:24:06;;;;;;;0.20;0.20;;;7.90;99.90;;;;;;5042095;28;20688;-59
2022/03/21 00:26:32;;;;;;;0.85;0.55;;;6.90;99.90;;;;;;5042400;28;20048;-59
2022/03/21 00:28:58;;;;;;;0.10;0.10;;;6.90;99.90;;;;;;5042023;28;20047;-59
2022/03/21 00:31:23;;;;;;;0.00;0.00;;;6.90;99.90;;;;;;5042161;28;20068;-59
2022/03/21 00:33:49;;;;;;;0.40;0.30;;;6.80;99.90;;;;;;5040708;28;20504;-58
2022/03/21 00:36:16;;;;;;;0.00;0.00;;;6.90;99.90;;;;;;5042211;28;20052;-59
2022/03/21 00:38:43;;;;;;;0.10;0.10;;;6.90;99.90;;;;;;5041701;28;20404;-59
2022/03/21 00:41:09;;;;;;;0.00;0.00;;;8.00;99.90;;;;;;5042148;28;20043;-59
2022/03/21 00:43:35;;;;;;;0.00;0.00;;;7.50;99.90;;;;;;5041512;28;20040;-60
2022/03/21 00:46:01;;;;;;;0.10;0.10;;;8.20;99.90;;;;;;5042374;28;20076;-59
2022/03/21 00:48:28;;;;;;;0.00;0.00;;;7.20;99.90;;;;;;5041419;28;20068;-58
2022/03/21 00:50:56;;;;;;;0.00;0.00;;;6.90;99.90;;;;;;5007032;28;20481;-59
2022/03/21 00:53:22;;;;;;;0.00;0.00;;;6.90;99.90;;;;;;5042190;28;20459;-59
2022/03/21 00:55:49;;;;;;;0.00;0.00;;;6.80;99.90;;;;;;5041545;28;20045;-59
2022/03/21 00:58:16;;;;;;;0.10;0.10;;;6.80;99.90;;;;;;5042001;28;20124;-59
2022/03/21 01:00:42;;;;;;;0.00;0.00;;;6.80;99.90;;;;;;5041357;28;20048;-59
2022/03/21 01:03:08;;;;;;;0.00;0.00;;;6.80;99.90;;;;;;5033993;28;20407;-59
2022/03/21 01:05:35;;;;;;;0.00;0.00;;;6.80;99.90;;;;;;5041917;28;20049;-60
2022/03/21 01:08:02;;;;;;;0.00;0.00;;;6.90;99.90;;;;;;5041664;28;20052;-58
2022/03/21 01:10:29;;;;;;;0.00;0.00;;;6.90;99.90;;;;;;5041693;28;20128;-59
2022/03/21 01:12:55;;;;;;;0.00;0.00;;;6.90;99.90;;;;;;5041455;28;20359;-59
2022/03/21 01:15:23;;;;;;;0.00;0.00;;;6.90;99.90;;;;;;5041429;28;20089;-58
2022/03/21 01:17:50;;;;;;;0.00;0.00;;;6.90;99.90;;;;;;5039950;28;20045;-59
2022/03/21 01:20:18;;;;;;;0.00;0.00;;;6.90;99.90;;;;;;5041598;28;20067;-59
2022/03/21 01:22:45;;;;;;;0.00;0.00;;;6.90;99.90;;;;;;5041252;28;20044;-59
2022/03/21 01:25:11;;;;;;;0.00;0.00;;;6.80;99.90;;;;;;5041441;28;20037;-59
2022/03/21 01:27:38;;;;;;;0.15;0.05;;;6.80;99.90;;;;;;5023377;28;20144;-59
2022/03/21 01:30:05;;;;;;;0.00;0.00;;;6.80;99.90;;;;;;5041820;28;20037;-59
2022/03/21 01:32:32;;;;;;;0.00;0.00;;;6.80;99.90;;;;;;5045017;28;20045;-59
2022/03/21 01:34:58;;;;;;;0.00;0.00;;;6.10;99.90;;;;;;5044140;28;20163;-59
2022/03/21 01:37:23;;;;;;;0.00;0.00;;;6.80;99.90;;;;;;5045683;28;20049;-59
2022/03/21 01:39:49;;;;;;;0.00;0.00;;;8.10;99.90;;;;;;5027324;28;20060;-59
2022/03/21 01:42:15;;;;;;;0.00;0.00;;;6.80;99.90;;;;;;5045026;28;20048;-59
2022/03/21 01:44:41;;;;;;;0.00;0.00;;;6.80;99.90;;;;;;5044805;28;20163;-59
2022/03/21 01:47:07;;;;;;;0.00;0.00;;;6.80;99.90;;;;;;5045466;28;20107;-59
2022/03/21 01:49:32;;;;;;;0.00;0.00;;;8.10;99.90;;;;;;5044980;28;20256;-59
2022/03/21 01:51:58;;;;;;;0.00;0.00;;;6.80;99.90;;;;;;5043952;28;20045;-58
2022/03/21 01:57:09;;;;;;;0.40;0.40;;;6.80;99.90;;;;;;5044633;28;20053;-59
2022/03/21 01:59:36;;;;;;;0.55;0.30;;;6.70;99.90;;;;;;5045090;28;20044;-60
2022/03/21 02:02:03;;;;;;;0.00;0.00;;;7.30;99.90;;;;;;5050513;28;20125;-59
2022/03/21 02:04:29;;;;;;;0.00;0.00;;;6.80;99.90;;;;;;5049169;28;20053;-59
2022/03/21 02:06:54;;;;;;;0.20;0.20;;;6.70;99.90;;;;;;5044187;28;20116;-59
2022/03/21 02:09:20;;;;;;;0.00;0.00;;;6.70;99.90;;;;;;5044830;28;20133;-59
2022/03/21 02:11:46;;;;;;;0.45;0.45;;;6.70;99.90;;;;;;5026473;28;20059;-59
2022/03/21 02:14:11;;;;;;;0.00;0.00;;;6.80;99.90;;;;;;5044969;28;20052;-59
2022/03/21 02:16:38;;;;;;;0.20;0.20;;;6.80;99.90;;;;;;5044404;28;20499;-59
2022/03/21 02:19:31;;;;;;;0.10;0.10;;;6.70;99.90;;;;;;5044473;28;20044;-59
2022/03/21 02:22:12;;;;;;;0.38;0.25;;;6.70;99.90;;;;;;5040723;28;20045;-59
2022/03/21 02:25:23;;;;;;;0.15;0.15;;;6.80;99.90;;;;;;5044381;28;20049;-59
2022/03/21 02:27:50;;;;;;;0.10;0.10;;;6.70;99.90;;;;;;4962588;28;20194;-59
2022/03/21 02:30:17;;;;;;;0.20;0.20;;;6.70;99.90;;;;;;5027802;28;20104;-59
2022/03/21 02:32:44;;;;;;;0.00;0.00;;;6.70;99.90;;;;;;5042772;28;20051;-61
2022/03/21 02:35:10;;;;;;;1.02;0.65;;;6.70;99.90;;;;;;5044729;28;20435;-59
2022/03/21 02:37:37;;;;;;;0.35;0.20;;;6.70;99.90;;;;;;5044144;28;20045;-59
2022/03/21 02:40:04;;;;;;;0.00;0.00;;;6.70;99.90;;;;;;5043687;28;20049;-59
2022/03/21 02:42:30;;;;;;;0.05;0.05;;;6.70;99.90;;;;;;5026450;28;20524;-59
2022/03/21 02:44:56;;;;;;;0.08;0.08;;;6.70;99.90;;;;;;5043844;28;20045;-59
2022/03/21 02:47:21;;;;;;;0.52;0.20;;;6.60;99.90;;;;;;5043247;28;20309;-59
2022/03/21 02:49:48;;;;;;;0.00;0.00;;;6.70;99.90;;;;;;5043758;28;20080;-59
2022/03/21 02:52:15;;;;;;;0.00;0.00;;;6.80;99.90;;;;;;5044061;28;20590;-59
2022/03/21 02:54:41;;;;;;;0.00;0.00;;;6.70;99.90;;;;;;5043556;28;20683;-59
2022/03/21 02:57:07;;;;;;;0.00;0.00;;;6.60;99.90;;;;;;5043389;28;20039;-59
2022/03/21 02:59:32;;;;;;;0.32;0.30;;;6.60;99.90;;;;;;5026604;28;20487;-59
2022/03/21 03:01:58;;;;;;;0.20;0.20;;;6.60;99.90;;;;;;5048617;28;20122;-59
2022/03/21 03:04:25;;;;;;;0.10;0.10;;;6.60;99.90;;;;;;5048561;28;20041;-59
2022/03/21 03:06:51;;;;;;;0.00;0.00;;;6.60;99.90;;;;;;5043583;28;20048;-59
2022/03/21 03:09:17;;;;;;;0.43;0.43;;;6.50;99.90;;;;;;5043869;28;20715;-59
2022/03/21 03:11:43;;;;;;;0.22;0.22;;;8.00;99.90;;;;;;5025218;28;20049;-60
2022/03/21 03:14:09;;;;;;;0.22;0.22;;;6.50;99.90;;;;;;5043075;28;20041;-59
2022/03/21 03:16:35;;;;;;;0.00;0.00;;;6.50;99.90;;;;;;5043610;28;20049;-60
2022/03/21 03:19:01;;;;;;;0.00;0.00;;;6.40;99.90;;;;;;5042940;28;20251;-59
2022/03/21 03:21:33;;;;;;;0.00;0.00;;;6.40;99.90;;;;;;5043183;28;20047;-59
2022/03/21 03:24:00;;;;;;;0.10;0.10;;;6.30;99.90;;;;;;5042969;28;20072;-59
2022/03/21 03:26:26;;;;;;;0.55;0.55;;;6.30;99.90;;;;;;5043424;28;20123;-59
2022/03/21 03:28:51;;;;;;;0.22;0.22;;;6.30;99.90;;;;;;5042884;28;20125;-59
2022/03/21 03:31:18;;;;;;;2.20;0.28;;;6.30;99.90;;;;;;5042553;28;20351;-59
2022/03/21 03:33:45;;;;;;;0.20;0.20;;;6.20;99.90;;;;;;5041970;28;20041;-59
2022/03/21 03:36:15;;;;;;;0.17;0.17;;;6.20;99.90;;;;;;5043593;28;20098;-59
2022/03/21 03:38:42;;;;;;;0.00;0.00;;;6.20;99.90;;;;;;5024538;28;20110;-59
2022/03/21 03:41:10;;;;;;;0.13;0.13;;;6.10;99.90;;;;;;5043088;28;20122;-59
2022/03/21 03:43:36;;;;;;;0.28;0.05;;;6.10;99.90;;;;;;5042706;28;20045;-59
2022/03/21 03:46:02;;;;;;;0.80;0.10;;;6.10;99.90;;;;;;5042345;28;20044;-59
2022/03/21 03:48:28;;;;;;;0.08;0.08;;;6.00;99.90;;;;;;5042456;28;20048;-59
2022/03/21 03:50:54;;;;;;;0.25;0.25;;;6.00;99.90;;;;;;5042399;28;20531;-59
2022/03/21 03:53:20;;;;;;;0.30;0.30;;;6.00;99.90;;;;;;5042205;28;20049;-59
2022/03/21 03:55:46;;;;;;;0.00;0.00;;;5.90;99.90;;;;;;5024183;28;20047;-59
2022/03/21 03:58:12;;;;;;;0.10;0.10;;;5.90;99.90;;;;;;5042629;28;20045;-59
2022/03/21 04:00:38;;;;;;;0.00;0.00;;;5.90;99.90;;;;;;5042409;28;20102;-59
2022/03/21 04:05:49;;;;;;;0.00;0.00;;;5.80;99.90;;;;;;5042444;28;20048;-60
2022/03/21 04:08:18;;;;;;;0.00;0.00;;;5.70;99.90;;;;;;5042666;28;20052;-59
2022/03/21 04:10:43;;;;;;;0.00;0.00;;;5.70;99.90;;;;;;5041346;28;20044;-60
2022/03/21 04:13:09;;;;;;;0.00;0.00;;;5.60;99.90;;;;;;5042384;28;20052;-59
2022/03/21 04:15:35;;;;;;;0.00;0.00;;;5.60;99.90;;;;;;5042282;28;20056;-59
2022/03/21 04:18:02;;;;;;;0.05;0.03;;;5.60;99.90;;;;;;5024400;28;20051;-59
2022/03/21 04:20:31;;;;;;;0.00;0.00;;;5.70;99.90;;;;;;5042052;28;20033;-59
2022/03/21 04:22:57;;;;;;;0.00;0.00;;;5.60;99.90;;;;;;5023856;28;20056;-59
2022/03/21 04:25:23;;;;;;;0.00;0.00;;;5.50;99.90;;;;;;5042383;28;20052;-60
2022/03/21 04:27:49;;;;;;;0.00;0.00;;;5.40;99.90;;;;;;5041526;28;20049;-60
2022/03/21 04:30:14;;;;;;;0.10;0.10;;;5.40;99.90;;;;;;5042323;28;20059;-59
2022/03/21 04:32:40;;;;;;;0.00;0.00;;;5.40;99.90;;;;;;5041386;28;20040;-60
2022/03/21 04:35:06;;;;;;;0.20;0.20;;;5.40;99.90;;;;;;5042118;28;20120;-59
2022/03/21 04:37:32;;;;;;;0.00;0.00;;;5.30;99.90;;;;;;5042359;28;20044;-59
2022/03/21 04:39:58;;;;;;;0.00;0.00;;;5.30;99.90;;;;;;5041625;28;20395;-59
2022/03/21 04:42:24;;;;;;;0.30;0.30;;;5.30;99.90;;;;;;5042476;28;20407;-60
2022/03/21 04:44:50;;;;;;;6.07;0.43;;;5.30;99.90;;;;;;5040952;28;20625;-59
2022/03/21 04:47:17;;;;;;;0.10;0.10;;;5.20;99.90;;;;;;5041493;28;20040;-59
2022/03/21 04:49:44;;;;;;;0.00;0.00;;;5.20;99.90;;;;;;5041777;28;20408;-60
2022/03/21 04:52:10;;;;;;;0.00;0.00;;;5.20;99.90;;;;;;5041914;28;20044;-59
2022/03/21 04:54:35;;;;;;;0.00;0.00;;;5.10;99.90;;;;;;5041053;28;20041;-60
2022/03/21 04:57:01;;;;;;;0.00;0.00;;;5.10;99.90;;;;;;5041965;28;20078;-60
2022/03/21 04:59:27;;;;;;;0.13;0.13;;;5.10;99.90;;;;;;5042156;28;20048;-59
2022/03/21 05:01:52;;;;;;;0.00;0.00;;;5.00;99.90;;;;;;5045408;28;20056;-59
2022/03/21 05:04:22;;;;;;;0.00;0.00;;;5.00;99.90;;;;;;5039748;28;20052;-60
2022/03/21 05:06:48;;;;;;;0.00;0.00;;;4.90;99.90;;;;;;5045423;28;20128;-59
2022/03/21 05:09:14;;;;;;;0.00;0.00;;;6.30;99.90;;;;;;5045895;28;20476;-59
2022/03/21 05:11:40;;;;;;;0.00;0.00;;;4.90;99.90;;;;;;5044968;28;20053;-59
2022/03/21 05:14:05;;;;;;;0.00;0.00;;;4.80;99.90;;;;;;5046127;28;20048;-59
2022/03/21 05:16:32;;;;;;;0.00;0.00;;;4.60;99.90;;;;;;5046459;28;20444;-59
2022/03/21 05:18:58;;;;;;;0.00;0.00;;;4.60;99.90;;;;;;5044131;28;20048;-59
2022/03/21 05:21:23;;;;;;;0.00;0.00;;;4.50;99.90;;;;;;5045707;28;20033;-59
2022/03/21 05:32:02;;;;;;;0.00;0.00;;;4.30;99.90;;;;;;5026885;28;20056;-59
2022/03/21 05:37:12;;;;;;;0.00;0.00;;;4.20;99.90;;;;;;5044414;28;20326;-59
2022/03/21 05:40:31;;;;;;;0.00;0.00;;;4.20;99.90;;;;;;5044900;28;20045;-59
2022/03/21 05:42:24;;;;;;;0.00;0.00;;;4.10;99.90;;;;;;5044796;28;20487;-59
2022/03/21 05:44:50;;;;;;;0.00;0.00;;;4.00;99.90;;;;;;5027180;28;20055;-59
2022/03/21 05:47:15;;;;;;;0.00;0.00;;;4.00;99.90;;;;;;5044779;28;20040;-59
2022/03/21 05:49:41;;;;;;;0.00;0.00;;;4.20;99.90;;;;;;5044952;28;20045;-59
2022/03/21 05:52:07;;;;;;;0.00;0.00;;;4.40;99.90;;;;;;5044728;28;20071;-59
2022/03/21 05:54:32;;;;;;;0.00;0.00;;;4.00;99.90;;;;;;5045715;28;20044;-59
2022/03/21 05:56:58;;;;;;;0.00;0.00;;;4.10;99.90;;;;;;5044504;28;20120;-59
2022/03/21 06:02:08;;;;;;;0.00;0.00;;;4.10;99.90;;;;;;5051125;28;20049;-60
2022/03/21 06:04:33;;;;;;;0.00;0.00;;;4.10;99.90;;;;;;5049485;28;20048;-59
2022/03/21 06:06:59;;;;;;;0.00;0.00;;;4.10;99.90;;;;;;5044126;28;20040;-59
2022/03/21 06:09:25;;;;;;;0.00;0.00;;;4.10;99.90;;;;;;5045147;28;20439;-59
2022/03/21 06:11:50;;;;;;;0.00;0.00;;;4.10;99.90;;;;;;5044046;28;20045;-60
2022/03/21 06:14:20;;;;;;;0.00;0.00;;;4.20;99.90;;;;;;5044852;28;20052;-59
2022/03/21 06:16:46;;;;;;;0.00;0.00;;;4.50;99.90;;;;;;5042710;28;20045;-62
2022/03/21 06:19:12;;;;;;;0.00;0.00;;;5.50;99.90;;;;;;5026827;28;20053;-60
2022/03/21 06:21:38;;;;;;;0.00;0.00;;;4.20;99.90;;;;;;5044365;28;20048;-59
2022/03/21 06:24:04;;;;;;;0.00;0.00;;;4.20;99.90;;;;;;5044231;28;20045;-59
2022/03/21 06:26:29;;;;;;;0.00;0.00;;;4.30;99.90;;;;;;5044873;28;20116;-59
2022/03/21 06:28:55;;;;;;;0.00;0.00;;;4.30;99.90;;;;;;5043942;28;20650;-59
2022/03/21 06:31:21;;;;;;;0.00;0.00;;;4.30;99.90;;;;;;5044429;28;20037;-59
2022/03/21 06:33:46;;;;;;;0.00;0.00;;;4.30;99.90;;;;;;5043056;28;20178;-61
2022/03/21 06:36:14;;;;;;;0.00;0.00;;;4.40;99.90;;;;;;5044420;28;20049;-60
2022/03/21 06:38:39;;;;;;;0.00;0.00;;;4.40;99.90;;;;;;5026031;28;20048;-60
2022/03/21 06:41:06;;;;;;;0.00;0.00;;;4.40;99.90;;;;;;5044164;28;20091;-61
2022/03/21 06:43:32;;;;;;;0.00;0.00;;;4.50;99.90;;;;;;5044532;28;20040;-60
2022/03/21 06:45:58;;;;;;;0.08;0.05;;;4.50;99.90;;;;;;5043542;28;20179;-60
2022/03/21 06:48:27;;;;;;;0.00;0.00;;;4.60;99.90;;;;;;5043501;28;20044;-59
2022/03/21 06:50:55;;;;;;;0.00;0.00;;;4.60;99.90;;;;;;5042897;28;20044;-59
2022/03/21 06:53:22;;;;;;;0.00;0.00;;;4.70;99.90;;;;;;5044188;28;20049;-59
2022/03/21 06:55:48;;;;;;;0.00;0.00;;;4.80;99.90;;;;;;5043539;28;20060;-59
2022/03/21 06:58:15;;;;;;;0.00;0.00;;;4.90;99.90;;;;;;5043144;28;20085;-61
2022/03/21 07:00:41;;;;;;;0.00;0.00;;;5.00;99.90;;;;;;5043958;28;20037;-59
2022/03/21 07:03:08;;;;;;;0.00;0.00;;;5.10;99.90;;;;;;5053855;28;20521;-59
2022/03/21 07:05:37;;;;;;;0.00;0.00;;;5.20;99.90;;;;;;5044283;28;20455;-60
2022/03/21 07:08:06;;;;;;;0.00;0.00;;;5.20;99.90;;;;;;5043188;28;20052;-60
2022/03/21 07:10:35;;;;;;;0.00;0.00;;;6.10;99.90;;;;;;5044148;28;20041;-59
2022/03/21 07:13:02;;;;;;;0.00;0.00;;;5.40;99.90;;;;;;5043579;28;20091;-59
2022/03/21 07:15:28;;;;;;;0.00;0.00;;;6.10;99.90;;;;;;5043232;28;20041;-59
2022/03/21 07:17:55;;;;;;;0.25;0.20;;;5.50;99.90;;;;;;5042533;28;20044;-59
2022/03/21 07:20:22;;;;;;;0.05;0.03;;;5.60;99.90;;;;;;5043560;28;20043;-59
2022/03/21 07:22:47;;;;;;;0.00;0.00;;;5.70;99.90;;;;;;5042573;28;20072;-59
2022/03/21 07:25:13;;;;;;;0.00;0.00;;;6.40;99.90;;;;;;5044048;28;20980;-59
2022/03/21 07:27:42;;;;;;;0.68;0.32;;;5.80;99.90;;;;;;5042994;28;20041;-62
2022/03/21 07:30:08;;;;;;;0.00;0.00;;;6.00;99.90;;;;;;5043375;28;20412;-59
2022/03/21 07:32:34;;;;;;;0.10;0.10;;;6.10;99.90;;;;;;5041980;28;20044;-58
2022/03/21 07:34:59;;;;;;;0.43;0.20;;;6.10;99.90;;;;;;5043510;28;20041;-59
2022/03/21 07:37:25;;;;;;;0.00;0.00;;;6.10;99.90;;;;;;5025286;28;20641;-59
2022/03/21 07:39:51;;;;;;;0.00;0.00;;;6.40;99.90;;;;;;5024481;28;20098;-59
2022/03/21 07:42:19;;;;;;;0.00;0.00;;;6.50;99.90;;;;;;5042688;28;20108;-59
2022/03/21 07:47:29;;;;;;;0.53;0.40;;;7.00;99.90;;;;;;5061522;28;20080;-60
2022/03/21 07:49:55;;;;;;;0.40;0.40;;;6.80;99.90;;;;;;5062311;28;20703;-59
2022/03/21 07:52:22;;;;;;;0.20;0.20;;;6.90;99.90;;;;;;5062915;28;20048;-59
2022/03/21 07:54:53;;;;;;;0.00;0.00;;;6.90;99.90;;;;;;5061682;28;20102;-59
2022/03/21 07:57:19;;;;;;;0.32;0.20;;;7.10;99.90;;;;;;5062496;28;20052;-59
2022/03/21 07:59:45;;;;;;;0.00;0.00;;;7.60;99.90;;;;;;5062280;28;20052;-59
2022/03/21 08:02:11;;;;;;;0.00;0.00;;;7.20;99.90;;;;;;5043265;28;20060;-59
2022/03/21 08:04:36;;;;;;;0.10;0.10;;;7.50;99.90;;;;;;5045529;28;20563;-60
2022/03/21 08:07:02;;;;;;;0.00;0.00;;;7.20;99.90;;;;;;5042932;28;20051;-58
2022/03/21 08:09:28;;;;;;;0.10;0.10;;;7.30;99.90;;;;;;5042916;28;20110;-59
2022/03/21 08:11:55;;;;;;;0.00;0.00;;;7.40;99.90;;;;;;5041381;28;20041;-59
2022/03/21 08:14:21;;;;;;;0.20;0.10;;;7.50;99.90;;;;;;5042355;28;20530;-59
2022/03/21 08:16:47;;;;;;;0.20;0.10;;;7.60;99.90;;;;;;5041349;28;20153;-64
2022/03/21 08:19:12;;;;;;;0.40;0.38;;;7.90;99.90;;;;;;5042539;28;20045;-63
2022/03/21 08:21:38;;;;;;;0.00;0.00;;;7.90;99.90;;;;;;5041349;28;20395;-64
2022/03/21 08:24:04;;;;;;;0.10;0.10;;;8.40;99.90;;;;;;5025006;28;20047;-63
2022/03/21 08:26:29;;;;;;;0.10;0.10;;;8.20;99.90;;;;;;5042375;28;20041;-65
2022/03/21 08:28:55;;;;;;;0.10;0.10;;;8.20;99.90;;;;;;5041632;28;20052;-64
2022/03/21 08:31:21;;;;;;;0.00;0.00;;;8.50;99.90;;;;;;5041422;28;20048;-64
2022/03/21 08:33:47;;;;;;;0.00;0.00;;;8.90;99.90;;;;;;5040341;28;20049;-64
2022/03/21 08:36:13;;;;;;;0.00;0.00;;;8.50;99.90;;;;;;5023986;28;20045;-62
2022/03/21 08:38:40;;;;;;;0.00;0.00;;;8.80;99.90;;;;;;5041182;28;20041;-65
2022/03/21 08:41:06;;;;;;;0.00;0.00;;;8.60;99.90;;;;;;5041285;28;20582;-64
2022/03/21 08:43:31;;;;;;;0.00;0.00;;;8.70;99.90;;;;;;5042010;28;20033;-64
2022/03/21 08:45:57;;;;;;;0.00;0.00;;;8.70;99.90;;;;;;5023523;28;20135;-64
2022/03/21 08:49:23;;;;;;;0.00;0.00;;;8.70;99.90;;;;;;5039944;28;20132;-64
2022/03/21 08:51:09;;;;;;;0.10;0.10;;;8.90;99.90;;;;;;5023844;28;20053;-63
2022/03/21 08:53:35;;;;;;;0.00;0.00;;;9.20;99.90;;;;;;5040784;28;20048;-65
2022/03/21 08:56:01;;;;;;;0.20;0.20;;;9.10;99.90;;;;;;5041573;28;20049;-64
2022/03/21 08:58:27;;;;;;;0.10;0.10;;;9.20;99.90;;;;;;5041498;28;20041;-64
2022/03/21 09:00:52;;;;;;;0.00;0.00;;;9.40;99.90;;;;;;5041995;28;20063;-64
2022/03/21 09:03:18;;;;;;;0.00;0.00;;;9.50;99.90;;;;;;5055648;28;20056;-64
2022/03/21 09:05:46;;;;;;;0.00;0.00;;;9.70;99.90;;;;;;5043289;28;20056;-62
2022/03/21 09:08:12;;;;;;;0.00;0.00;;;9.70;99.90;;;;;;5061173;28;20036;-62
2022/03/21 09:10:38;;;;;;;0.00;0.00;;;9.90;99.90;;;;;;5060988;28;20047;-62
2022/03/21 09:13:05;;;;;;;0.00;0.00;;;10.20;99.90;;;;;;5061707;28;20113;-62
2022/03/21 09:15:31;;;;;;;0.15;0.15;;;10.90;99.90;;;;;;5061861;28;20120;-62
2022/03/21 09:17:57;;;;;;;0.28;0.28;;;11.30;99.90;;;;;;5060183;28;20132;-62
2022/03/21 09:20:22;;;;;;;0.10;0.10;;;11.80;99.90;;;;;;5060856;28;20043;-62
2022/03/21 09:22:48;;;;;;;0.00;0.00;;;12.40;99.90;;;;;;5060783;28;20048;-62
2022/03/21 09:25:17;;;;;;;0.00;0.00;;;13.00;99.90;;;;;;5061221;28;20051;-63
2022/03/21 09:27:42;;;;;;;0.10;0.10;;;13.20;99.90;;;;;;5042905;28;20080;-64
2022/03/21 09:30:10;;;;;;;0.28;0.28;;;13.30;99.90;;;;;;5061077;28;20500;-64
2022/03/21 09:32:36;;;;;;;0.10;0.10;;;13.30;99.90;;;;;;5060068;28;20102;-62
2022/03/21 09:35:02;;;;;;;0.65;0.10;;;13.40;99.90;;;;;;5061686;28;20041;-61
2022/03/21 09:37:28;;;;;;;0.10;0.10;;;13.30;99.90;;;;;;5060801;28;20072;-62
2022/03/21 09:39:53;;;;;;;0.25;0.25;;;13.20;99.90;;;;;;5042678;28;20083;-62
2022/03/21 09:42:20;;;;;;;0.15;0.15;;;13.50;99.90;;;;;;5061231;28;20455;-61
2022/03/21 09:44:52;;;;;;;1.65;1.08;;;13.80;99.90;;;;;;5042713;28;20709;-62
2022/03/21 09:50:12;;;;;;;0.00;0.00;;;13.90;99.90;;;;;;5043205;28;20041;-62
2022/03/21 09:52:39;;;;;;;0.05;0.05;;;13.50;99.90;;;;;;5062446;28;20066;-62
2022/03/21 09:55:07;;;;;;;0.00;0.00;;;13.60;99.90;;;;;;5065250;28;20072;-63
2022/03/21 09:57:36;;;;;;;0.08;0.08;;;13.80;99.90;;;;;;5064941;28;20094;-62
2022/03/21 10:00:07;;;;;;;0.00;0.00;;;14.20;99.90;;;;;;5061089;28;20711;-62
2022/03/21 10:02:35;;;;;;;0.38;0.38;;;13.60;99.90;;;;;;5054040;28;20056;-62
2022/03/21 10:05:01;;;;;;;0.30;0.30;;;13.40;99.90;;;;;;5045341;28;20701;-62
2022/03/21 10:07:27;;;;;;;0.20;0.20;;;13.20;99.90;;;;;;5044190;28;20073;-61
2022/03/21 10:10:14;;;;;;;0.13;0.13;;;13.40;99.90;;;;;;5026131;28;20041;-61
2022/03/21 10:12:40;;;;;;;0.82;0.52;;;13.60;99.90;;;;;;5043684;28;20456;-61
2022/03/21 10:15:07;;;;;;;0.08;0.08;;;13.20;99.90;;;;;;5044683;28;20041;-61
2022/03/21 10:17:33;;;;;;;0.00;0.00;;;13.70;99.90;;;;;;5053384;28;20052;-61
2022/03/21 10:19:59;;;;;;;0.65;0.50;;;14.30;99.90;;;;;;5062432;28;20047;-60
2022/03/21 10:22:37;;;;;;;0.00;0.00;;;14.90;99.90;;;;;;5055204;28;20080;-60
2022/03/21 10:25:07;;;;;;;0.10;0.10;;;14.90;99.90;;;;;;5026350;28;20061;-60
2022/03/21 10:27:41;;;;;;;0.00;0.00;;;15.30;99.90;;;;;;5044417;28;20053;-61
2022/03/21 10:30:15;;;;;;;0.00;0.00;;;15.20;99.90;;;;;;5022565;28;20071;-61
2022/03/21 10:32:46;;;;;;;0.10;0.10;;;15.10;99.90;;;;;;5039512;28;20076;-60
2022/03/21 10:35:26;;;;;;;0.00;0.00;;;14.80;99.90;;;;;;5036301;28;20048;-61
2022/03/21 10:38:00;;;;;;;0.28;0.28;;;14.60;99.90;;;;;;5063594;28;20127;-60
2022/03/21 10:40:30;;;;;;;0.65;0.20;;;14.90;99.90;;;;;;5046353;28;20490;-61
2022/03/21 10:43:03;;;;;;;0.00;0.00;;;14.90;99.90;;;;;;5046148;28;20048;-61
2022/03/21 10:45:34;;;;;;;0.13;0.10;;;15.10;99.90;;;;;;5063892;28;20044;-62
2022/03/21 10:48:00;;;;;;;0.00;0.00;;;15.60;99.90;;;;;;5062887;28;20098;-62
2022/03/21 10:50:32;;;;;;;0.70;0.10;;;16.00;99.90;;;;;;5029520;28;20044;-61
2022/03/21 10:53:13;;;;;;;0.00;0.00;;;15.90;99.90;;;;;;5045883;28;20059;-61
2022/03/21 10:55:41;;;;;;;0.00;0.00;;;15.80;99.90;;;;;;5062767;28;20040;-63
2022/03/21 10:58:07;;;;;;;0.08;0.08;;;16.30;99.90;;;;;;5063667;28;20047;-62
2022/03/21 11:00:34;;;;;;;0.10;0.10;;;15.80;99.90;;;;;;5063764;28;20427;-61
2022/03/21 11:03:06;;;;;;;0.03;0.03;;;16.00;99.90;;;;;;5049989;28;20530;-61
2022/03/21 11:05:50;;;;;;;0.13;0.13;;;15.90;99.90;;;;;;5046286;28;20494;-61
2022/03/21 11:08:18;;;;;;;0.00;0.00;;;16.40;99.90;;;;;;5063434;28;20032;-61
2022/03/21 11:10:47;;;;;;;0.00;0.00;;;16.80;99.90;;;;;;5063234;28;20048;-62
2022/03/21 11:13:13;;;;;;;0.00;0.00;;;17.10;99.90;;;;;;5045657;28;20048;-62
2022/03/21 11:15:40;;;;;;;0.00;0.00;;;17.10;99.90;;;;;;5044989;28;20048;-63
2022/03/21 11:18:07;;;;;;;0.00;0.00;;;17.60;99.90;;;;;;5061683;28;20123;-62
2022/03/21 11:20:34;;;;;;;0.10;0.10;;;17.00;99.90;;;;;;5045726;28;20079;-61
2022/03/21 11:23:01;;;;;;;0.00;0.00;;;16.50;99.90;;;;;;5063269;28;20389;-61
2022/03/21 11:25:36;;;;;;;0.25;0.10;;;16.20;99.90;;;;;;5044852;28;20049;-61
2022/03/21 11:28:33;;;;;;;0.03;0.03;;;16.30;99.90;;;;;;5063435;28;20084;-61
2022/03/21 11:31:30;;;;;;;0.10;0.10;;;16.10;99.90;;;;;;5043687;28;20040;-62
2022/03/21 11:34:25;;;;;;;0.00;0.00;;;16.30;99.90;;;;;;5061876;28;20051;-61
2022/03/21 11:36:56;;;;;;;1.27;0.38;;;15.90;99.90;;;;;;5044350;28;20133;-61
2022/03/21 11:39:22;;;;;;;0.03;0.03;;;15.70;99.90;;;;;;5044548;28;20085;-61
2022/03/21 11:42:11;;;;;;;0.20;0.20;;;15.80;99.90;;;;;;5062400;28;20093;-61
2022/03/21 11:44:38;;;;;;;0.00;0.00;;;16.00;99.90;;;;;;5061968;28;20090;-61
2022/03/21 11:47:24;;;;;;;0.00;0.00;;;16.40;99.90;;;;;;5061753;28;20423;-61
2022/03/21 11:49:51;;;;;;;0.17;0.17;;;16.10;99.90;;;;;;5044247;28;20085;-61
2022/03/21 11:52:17;;;;;;;0.88;0.38;;;15.70;99.90;;;;;;5062269;28;20048;-61
2022/03/21 11:54:43;;;;;;;0.75;0.75;;;15.40;99.90;;;;;;5062511;28;20052;-60
2022/03/21 11:57:08;;;;;;;0.00;0.00;;;15.70;99.90;;;;;;5062685;28;20036;-60
2022/03/21 11:59:34;;;;;;;0.20;0.10;;;16.00;99.90;;;;;;5062041;28;20548;-60
2022/03/21 12:02:11;;;;;;;0.00;0.00;;;16.50;99.90;;;;;;5055052;28;20105;-60
2022/03/21 12:04:39;;;;;;;0.00;0.00;;;15.80;99.90;;;;;;5045585;28;20624;-61
2022/03/21 12:07:14;;;;;;;0.30;0.15;;;15.80;99.90;;;;;;5024176;28;20055;-63
2022/03/21 12:09:46;;;;;;;0.30;0.10;;;15.90;99.90;;;;;;5042089;28;20079;-61
2022/03/21 12:12:15;;;;;;;0.35;0.35;;;16.10;99.90;;;;;;5024676;28;20446;-60
2022/03/21 12:14:45;;;;;;;0.00;0.00;;;16.40;99.90;;;;;;5041005;28;20040;-60
2022/03/21 12:17:11;;;;;;;0.10;0.10;;;16.40;99.90;;;;;;5041140;28;20102;-60
2022/03/21 12:19:54;;;;;;;0.45;0.30;;;15.80;99.90;;;;;;5024314;28;20044;-57
2022/03/21 12:22:35;;;;;;;0.10;0.10;;;16.10;99.90;;;;;;5041799;28;20048;-60
2022/03/21 12:25:15;;;;;;;0.00;0.00;;;16.40;99.90;;;;;;5042149;28;20064;-60
2022/03/21 12:27:42;;;;;;;0.20;0.17;;;16.00;99.90;;;;;;5023848;28;20746;-61
2022/03/21 12:30:32;;;;;;;0.65;0.38;;;15.60;99.90;;;;;;5041940;28;20466;-60
2022/03/21 12:33:00;;;;;;;0.30;0.30;;;15.60;99.90;;;;;;5040779;28;20480;-60
2022/03/21 12:35:32;;;;;;;0.05;0.05;;;15.70;99.90;;;;;;5041561;28;20076;-60
2022/03/21 12:38:17;;;;;;;0.10;0.10;;;15.50;99.90;;;;;;5023595;28;20076;-60
2022/03/21 12:40:46;;;;;;;0.20;0.20;;;15.70;99.90;;;;;;5041486;28;20045;-61
2022/03/21 12:43:12;;;;;;;0.10;0.10;;;16.00;99.90;;;;;;5041875;28;20055;-60
2022/03/21 12:45:38;;;;;;;0.10;0.10;;;15.70;99.90;;;;;;5040740;28;20131;-60
2022/03/21 12:48:07;;;;;;;0.57;0.35;;;15.70;99.90;;;;;;5041165;28;20087;-60
2022/03/21 12:50:35;;;;;;;0.00;0.00;;;15.50;99.90;;;;;;5024614;28;20045;-60
2022/03/21 12:53:09;;;;;;;0.68;0.60;;;15.60;99.90;;;;;;5041647;28;20373;-62
2022/03/21 12:55:36;;;;;;;0.10;0.10;;;15.90;99.90;;;;;;5041619;28;20041;-63
2022/03/21 12:58:07;;;;;;;0.10;0.10;;;16.00;99.90;;;;;;5041548;28;20088;-60
2022/03/21 13:00:36;;;;;;;0.30;0.30;;;15.70;99.90;;;;;;5007486;28;20044;-60
2022/03/21 13:03:15;;;;;;;0.10;0.10;;;16.00;99.90;;;;;;5031206;28;20056;-60
2022/03/21 13:11:32;;;;;;;1.45;0.35;;;16.40;99.90;;;;;;5051390;28;20052;-61
2022/03/21 13:14:15;;;;;;;0.03;0.03;;;16.40;99.90;;;;;;5043914;28;20056;-60
2022/03/21 13:16:57;;;;;;;0.03;0.03;;;16.40;99.90;;;;;;5040463;28;20036;-57
2022/03/21 13:19:27;;;;;;;0.38;0.38;;;16.10;99.90;;;;;;5041794;28;20041;-56
2022/03/21 13:22:07;;;;;;;0.00;0.00;;;15.90;99.90;;;;;;5006448;28;20462;-56
2022/03/21 13:24:43;;;;;;;0.17;0.17;;;15.80;99.90;;;;;;5041988;28;20077;-57
2022/03/21 13:27:14;;;;;;;0.40;0.40;;;16.00;99.90;;;;;;5043537;28;20131;-57
2022/03/21 13:29:52;;;;;;;1.63;0.30;;;15.90;99.90;;;;;;5027071;28;20499;-62